Date,TemperatureHighF,TemperatureAvgF,TemperatureLowF,DewpointHighF,DewpointAvgF,DewpointLowF,HumidityHigh,HumidityAvg,HumidityLow,PressureMaxIn,PressureMinIn,WindSpeedMaxMPH,WindSpeedAvgMPH,GustSpeedMaxMPH,PrecipitationSumIn
2013-1-1,29,19,7,18,0,-14,76,44,25,29.92,29.67,35,10,35,0.00
2013-1-2,20,8,0,-11,-14,-17,48,36,26,29.96,29.71,38,10,38,0.00
2013-1-3,12,1,-10,-5,-14,-23,55,48,26,30.17,29.93,16,2,23,0.00
2013-1-4,34,16,-3,17,3,-15,62,54,46,29.95,29.77,9,2,9,0.00
2013-1-5,31,26,10,23,8,-6,77,47,24,30.33,29.76,38,10,38,0.00
2013-1-6,34,18,0,18,6,-6,71,58,48,30.33,30.00,4,1,4,0.01
2013-1-7,30,12,-4,9,-2,-15,64,51,31,30.26,29.56,14,2,14,0.03
2013-1-8,45,13,-6,20,0,-18,70,56,31,30.10,29.94,6,2,6,0.00
2013-1-9,34,21,3,27,12,-6,82,67,51,30.17,29.59,9,1,9,0.00
2013-1-10,41,34,23,28,22,11,84,62,46,30.26,29.59,44,14,44,0.05
2013-1-11,39,28,18,24,16,6,79,60,36,30.28,29.96,7,2,8,0.00
2013-1-12,31,30,30,27,25,24,84,82,78,29.99,29.95,4,2,4,0.00
2013-1-13,41,31,18,36,20,6,90,63,42,30.28,29.59,44,7,44,0.11
2013-1-14,45,36,29,42,25,11,91,67,32,30.26,29.57,27,2,27,0.01
2013-1-15,37,30,23,22,16,11,75,57,44,30.01,29.48,24,2,24,0.14
2013-1-16,28,26,23,22,18,14,79,72,67,29.94,29.44,8,2,8,0.00
2013-1-17,36,21,7,25,6,-21,81,56,24,29.83,29.42,15,2,15,0.17
2013-1-18,14,4,-5,-13,-20,-27,52,33,21,30.03,29.81,27,7,27,0.00
2013-1-19,26,20,-5,19,10,-18,75,65,52,30.01,29.44,4,1,4,0.00
2013-1-20,44,32,16,31,16,-11,77,55,25,29.49,29.08,39,10,39,0.06
2013-1-21,24,13,2,-3,-12,-18,49,33,21,29.70,29.48,24,5,24,0.00
2013-1-22,19,5,0,-9,-15,-24,57,38,22,29.65,29.50,16,4,16,0.00
2013-1-23,28,-3,-8,-24,-29,-36,30,25,21,29.72,29.26,29,11,29,0.00
2013-1-24,27,-2,-11,-22,-29,-36,31,26,21,29.77,29.54,32,12,32,0.00
2013-1-25,18,7,-2,-10,-17,-29,45,33,23,29.83,29.52,21,8,21,0.00
2013-1-26,30,12,0,16,-9,-35,59,39,21,30.01,29.46,24,8,24,0.37
2013-1-27,21,10,3,-4,-12,-17,54,35,27,30.31,30.01,36,12,36,0.00
2013-1-28,29,20,0,9,-4,-14,64,37,22,30.30,30.01,5,2,5,0.00
2013-1-29,40,26,4,18,10,-6,63,51,37,30.14,30.01,7,2,7,0.00
2013-1-30,51,39,28,48,35,17,90,85,62,30.09,29.35,10,3,10,0.22
2013-1-31,56,44,26,53,32,2,91,66,31,29.33,28.71,38,15,38,0.58
2013-2-1,26,18,10,7,-6,-15,44,33,28,29.94,29.33,36,14,36,0.00
2013-2-2,26,14,6,5,-11,-19,55,32,23,30.10,29.33,27,6,27,0.00
2013-2-3,29,20,10,9,5,-19,64,53,26,30.09,29.16,21,4,21,0.00
2013-2-4,27,19,12,5,0,-12,65,45,24,29.63,29.33,33,10,33,0.00
2013-2-5,21,11,0,-3,-14,-18,50,32,21,29.96,29.84,19,4,19,0.00
2013-2-6,36,20,11,15,-1,-16,59,39,23,30.18,29.84,24,7,24,0.00
2013-2-7,15,6,0,-12,-20,-27,47,28,21,30.51,30.19,21,6,21,0.00
2013-2-8,12,6,2,-2,-12,-24,61,43,26,30.54,29.99,27,8,27,0.00
2013-2-9,16,11,8,8,2,-3,71,65,54,30.03,29.75,40,17,40,0.00
2013-2-10,36,19,4,6,-4,-11,70,37,21,30.12,29.58,27,11,27,0.00
2013-2-11,31,14,-3,27,2,-16,86,61,43,29.96,29.21,4,1,4,0.00
2013-2-12,43,35,29,33,27,23,86,74,60,29.36,29.15,28,4,28,0.22
2013-2-13,42,35,27,25,20,13,74,54,35,29.42,29.35,22,4,22,0.00
2013-2-14,40,29,20,20,16,10,70,59,33,29.63,29.40,22,3,22,0.00
2013-2-15,44,26,19,28,16,9,77,66,52,29.63,29.55,12,1,12,0.00
2013-2-16,50,30,24,26,21,5,83,71,43,29.62,29.39,20,4,20,0.02
2013-2-17,43,21,16,27,7,-3,72,55,42,29.69,28.78,53,16,53,0.02
2013-2-18,49,19,11,20,-4,-10,75,37,22,29.73,28.98,48,22,48,0.01
2013-2-19,51,28,11,31,6,-10,84,44,21,29.95,29.53,12,4,12,0.34
2013-2-20,44,34,24,38,25,10,90,71,48,29.53,29.24,24,8,24,0.50
2013-2-21,31,26,19,21,11,1,69,53,45,30.01,29.47,26,10,26,0.00
2013-2-22,49,30,14,21,15,8,79,56,27,30.26,30.02,21,5,21,0.00
2013-2-23,36,25,17,24,17,10,85,72,53,30.19,29.94,7,2,7,0.00
2013-2-24,32,29,25,26,22,18,83,77,70,29.94,29.70,14,4,14,0.00
2013-2-25,46,29,20,27,22,15,82,76,41,30.17,29.83,8,0,8,0.17
2013-2-26,56,37,22,32,23,17,84,60,25,30.23,30.16,11,1,11,0.00
2013-2-27,42,26,18,26,18,11,84,72,50,30.16,29.65,21,4,21,0.00
2013-2-28,37,32,29,31,28,25,86,83,76,29.66,29.45,19,6,19,0.12
2013-3-1,37,32,29,31,28,25,87,83,72,29.55,29.45,14,2,14,0.06
2013-3-2,45,35,28,33,29,24,87,79,59,29.56,29.47,21,4,21,0.07
2013-3-3,34,33,32,30,29,28,87,86,86,29.49,29.47,7,1,7,0.00
2013-3-7,27,27,27,18,18,18,67,67,67,30.22,30.22,2,2,2,0.00
2013-3-11,38,37,36,31,30,28,78,76,74,30.05,30.02,2,0,2,0.00
2013-3-12,53,44,36,44,39,29,90,84,66,30.02,29.57,10,3,10,0.35
2013-3-13,51,44,39,44,40,32,93,85,55,29.56,29.47,15,4,15,0.14
2013-3-14,47,25,19,33,12,0,85,60,42,29.55,29.44,21,8,21,0.14
2013-3-15,46,27,14,8,1,-5,55,33,21,29.59,29.40,25,8,25,0.00
2013-3-16,41,26,10,24,11,1,75,55,31,29.60,29.42,16,5,16,0.00
2013-3-17,36,21,8,14,0,-14,69,43,21,29.93,29.42,35,9,35,0.00
2013-3-18,48,27,2,12,0,-10,65,33,21,30.22,29.41,24,5,27,0.00
2013-3-19,38,25,21,31,11,-7,78,59,26,30.11,29.49,21,8,21,0.53
2013-3-20,45,30,16,21,16,8,78,57,34,29.52,29.35,23,8,23,0.09
2013-3-21,44,24,12,25,12,4,74,62,35,29.54,29.48,11,2,11,0.09
2013-3-22,40,22,11,17,10,3,74,58,39,29.53,29.30,16,6,16,0.09
2013-3-23,42,34,24,30,21,11,85,60,36,29.71,29.22,29,10,29,0.01
2013-3-24,55,42,33,31,22,18,77,45,26,30.20,29.73,24,12,24,0.63
2013-3-25,57,41,23,35,24,18,86,53,26,30.05,29.90,15,6,16,0.63
2013-3-26,52,34,27,27,21,16,81,60,33,29.98,29.85,16,5,16,0.00
2013-3-27,44,35,24,39,30,19,87,81,64,30.12,29.96,17,4,17,0.14
2013-3-28,69,45,32,47,33,24,90,67,23,30.20,30.12,16,4,16,0.14
2013-3-29,62,42,27,42,31,25,95,70,32,30.24,30.19,22,4,22,0.01
2013-3-30,50,29,18,38,25,14,93,86,37,30.37,29.51,11,3,11,0.18
2013-3-31,53,35,18,31,28,14,85,77,34,30.37,29.57,10,4,10,0.80
2013-4-1,71,39,29,49,35,23,98,88,32,29.91,29.32,23,5,23,1.32
2013-4-2,46,28,21,22,11,4,79,49,23,29.57,29.46,24,5,24,0.00
2013-4-3,44,31,22,15,12,6,67,47,26,29.74,29.56,35,12,35,0.00
2013-4-4,46,34,26,22,11,0,82,42,21,29.97,29.69,33,9,35,0.00
2013-4-5,48,30,26,32,23,19,86,76,47,29.99,29.69,15,2,15,1.30
2013-4-6,49,31,25,30,22,-2,86,70,28,30.10,29.10,35,9,35,1.41
2013-4-7,61,37,26,36,28,8,85,70,28,29.95,29.39,19,5,19,0.02
2013-4-8,70,48,29,36,32,25,86,58,23,29.78,29.51,30,7,30,0.00
2013-4-9,35,32,28,34,28,25,93,87,80,29.78,29.67,5,1,5,0.13
2013-4-10,68,54,40,50,38,33,86,57,33,29.59,29.53,15,5,15,0.00
2013-4-11,58,41,26,36,21,11,95,53,20,29.68,29.53,25,6,25,0.00
2013-4-12,53,33,23,29,23,14,92,70,21,29.91,29.66,16,2,21,0.00
2013-4-13,54,40,31,36,32,28,95,77,49,29.68,29.45,11,2,11,0.21
2013-4-14,54,37,32,44,33,29,95,84,67,30.04,29.54,10,3,10,0.07
2013-4-15,78,47,25,39,31,23,97,64,18,30.26,29.99,14,3,14,0.07
2013-4-16,69,52,36,45,38,28,90,63,29,30.25,27.81,20,7,20,0.00
2013-4-17,69,50,36,46,33,22,98,57,17,30.04,29.80,30,10,30,0.00
2013-4-18,68,35,23,36,24,20,92,69,17,30.18,29.93,25,3,25,0.00
2013-4-19,84,61,46,59,50,32,95,69,41,29.96,29.49,21,8,21,0.00
2013-4-20,68,54,40,59,42,23,99,71,22,29.99,29.43,26,10,26,0.64
2013-4-21,43,37,33,26,22,18,67,56,40,30.31,30.01,30,11,30,0.00
2013-4-22,58,39,19,35,20,11,89,54,20,30.69,30.31,19,3,22,0.00
2013-4-23,58,44,41,41,39,30,97,82,34,30.29,30.10,10,4,10,0.00
2013-4-24,52,45,42,49,44,42,99,96,89,29.93,29.60,11,8,11,0.02
2013-4-26,49,34,27,38,30,25,96,85,68,30.11,29.39,11,4,11,0.20
2013-4-27,87,50,26,42,30,22,96,57,13,29.95,29.54,16,4,16,0.01
2013-4-28,93,66,28,43,33,26,96,38,12,29.85,29.74,14,3,14,0.01
2013-4-29,54,36,30,38,32,28,93,85,48,29.79,29.77,2,0,2,0.01
2013-4-30,89,67,39,46,38,31,92,39,16,29.89,29.80,13,4,13,0.00
2013-5-1,89,46,30,44,34,28,96,68,15,29.96,29.88,9,1,9,0.00
2013-5-2,85,57,35,47,36,23,94,52,16,30.06,29.94,17,5,17,0.00
2013-5-3,75,40,34,35,33,30,87,77,23,30.07,29.97,8,2,14,0.00
2013-5-4,94,58,29,41,33,21,95,50,11,29.91,29.79,11,4,11,0.00
2013-5-5,97,70,29,43,37,27,96,41,12,29.83,29.72,11,4,11,0.00
2013-5-6,97,70,34,46,39,29,99,43,13,29.79,29.65,17,5,17,0.00
2013-5-7,101,67,46,50,44,35,94,55,11,29.69,29.58,17,4,17,0.00
2013-5-8,99,73,53,59,54,44,98,59,17,29.77,29.69,17,4,17,0.00
2013-5-9,76,58,54,64,55,52,97,91,64,29.69,29.44,8,2,8,0.17
2013-5-10,97,67,54,61,56,53,98,76,30,29.50,29.42,14,2,14,0.26
2013-5-11,67,58,53,64,57,52,99,95,90,29.50,29.23,10,3,10,0.30
2013-5-12,67,57,54,65,56,54,99,97,85,29.24,29.08,12,3,12,0.52
2013-5-13,61,43,32,58,39,32,99,89,65,29.33,29.09,11,2,11,0.59
2013-5-14,63,52,27,56,36,25,99,59,27,29.94,29.76,19,5,19,0.02
2013-5-15,81,56,26,48,33,22,99,54,12,29.92,29.60,16,5,16,0.25
2013-5-16,84,62,48,65,50,38,99,72,26,29.62,29.50,21,5,21,0.01
2013-5-17,59,47,43,45,42,40,88,82,60,29.75,29.63,6,4,14,0.01
2013-5-20,86,61,50,73,56,50,99,86,40,29.96,29.86,7,2,7,0.04
2013-5-21,75,54,48,62,51,47,99,91,60,30.00,29.89,7,2,7,0.39
2013-5-22,64,53,48,58,51,48,99,93,74,29.93,29.83,11,3,11,0.17
2013-5-23,86,67,50,63,58,49,99,74,46,29.86,29.73,11,4,11,0.01
2013-5-26,63,51,43,57,48,42,99,92,75,29.81,29.62,24,7,24,0.44
2013-5-27,63,50,35,51,38,32,99,67,33,29.94,29.81,30,8,30,0.44
2013-5-28,98,71,31,49,38,30,97,41,12,30.16,27.41,11,3,11,0.44
2013-5-29,92,52,40,56,47,38,99,86,15,27.47,27.36,11,2,11,0.46
2013-5-30,66,57,53,63,56,53,98,96,86,27.36,27.21,11,2,11,0.58
2013-5-31,80,56,33,50,35,27,99,55,18,30.17,29.98,30,8,30,0.00
2013-6-1,104,69,31,72,56,30,99,69,28,30.22,29.82,13,2,13,0.24
2013-6-2,85,68,63,76,65,62,99,92,67,29.84,29.74,42,1,42,0.24
2013-6-3,103,78,54,67,63,53,98,65,29,29.81,29.69,14,4,14,0.38
2013-6-4,71,54,44,59,50,42,99,87,46,29.82,29.32,18,2,18,0.00
2013-6-13,90,69,51,58,50,39,98,57,22,29.80,29.70,15,3,15,2.95
2013-6-14,100,69,50,65,55,44,99,68,15,29.73,29.65,8,2,8,0.04
2013-6-15,81,64,47,53,44,37,99,56,23,29.84,29.72,26,7,26,0.01
2013-6-16,87,63,43,55,49,40,99,66,24,29.88,29.83,12,1,21,0.01
2013-6-17,91,75,51,64,58,51,99,60,34,29.88,29.25,17,4,17,0.05
2013-6-18,95,68,44,59,48,42,99,57,17,29.98,29.91,13,3,13,0.00
2013-6-19,92,67,42,64,51,36,99,63,17,30.13,29.70,14,3,14,0.05
2013-6-20,100,80,41,60,48,36,99,38,12,30.16,29.56,26,4,26,0.02
2013-6-21,91,75,56,57,53,49,78,51,25,29.94,29.92,14,2,14,0.00
2013-6-22,86,62,55,58,55,51,94,82,30,29.94,29.92,7,1,10,0.00
2013-6-23,80,72,61,66,52,37,98,57,24,29.93,29.62,26,6,26,0.00
2013-6-24,107,82,58,72,66,57,98,64,32,29.40,29.31,15,3,15,0.02
2013-6-25,105,76,66,73,67,63,99,80,34,29.31,29.24,14,2,14,0.05
2013-6-26,85,72,63,73,65,60,99,79,60,29.67,29.27,13,5,13,0.00
2013-6-27,77,65,56,63,59,56,99,82,63,29.69,29.62,8,3,8,0.07
2013-6-28,68,60,56,62,60,56,99,98,81,29.67,29.40,17,6,17,0.81
2013-6-29,87,68,62,83,67,62,99,95,73,29.48,29.37,15,2,15,0.24
2013-6-30,100,75,64,73,67,63,99,81,36,29.65,29.47,11,3,11,0.24
2013-7-1,91,77,68,71,69,66,98,77,47,29.91,27.32,4,0,5,0.03
2013-7-2,71,59,56,69,58,55,99,95,87,30.06,29.91,14,4,14,0.54
2013-7-3,99,72,55,72,62,55,99,74,41,30.00,29.91,8,2,8,0.00
2013-7-4,53,52,50,50,47,44,99,84,72,29.62,29.60,9,5,9,0.00
2013-7-5,102,88,67,75,70,66,98,58,36,29.95,27.34,15,4,26,0.00
2013-7-6,99,70,69,70,68,67,96,93,39,29.88,29.86,11,1,11,0.00
2013-7-7,101,96,68,68,66,64,96,38,33,29.88,29.77,15,7,15,0.00
2013-7-8,89,78,65,65,61,57,81,57,40,29.91,29.56,10,3,10,0.25
2013-7-9,100,73,56,66,61,56,98,72,32,30.00,29.89,12,2,12,0.00
2013-7-10,92,73,64,67,63,60,90,74,42,29.94,29.70,11,3,11,0.00
2013-7-11,96,72,0,75,66,58,98,81,45,29.85,29.36,7,2,7,0.20
2013-7-12,61,57,54,59,56,54,97,96,92,29.93,29.85,2,0,2,0.00
2013-7-13,100,79,49,64,58,48,99,57,22,30.18,30.10,8,2,8,0.00
2013-7-14,107,81,56,71,65,43,98,65,29,30.15,29.69,10,1,10,17.46
2013-7-15,105,83,58,71,65,57,98,62,28,30.03,29.92,14,3,14,0.00
2013-7-16,106,85,62,72,67,60,97,62,28,30.03,29.96,10,2,10,0.00
2013-7-17,104,86,60,74,69,59,98,60,36,30.04,29.80,14,4,14,0.18
2013-7-18,104,81,64,76,68,63,99,72,33,29.88,29.79,10,2,10,0.85
2013-7-19,105,81,62,85,72,61,99,79,42,30.04,29.14,17,3,17,0.00
2013-7-21,80,68,56,64,57,52,96,70,44,29.81,29.77,8,1,8,0.17
2013-7-22,96,82,52,76,59,50,98,50,27,29.92,29.39,10,3,10,0.00
2013-7-23,81,61,58,63,59,56,97,94,54,29.51,29.27,8,2,8,0.40
2013-7-24,85,63,47,65,52,46,95,70,44,29.92,29.57,21,6,21,1.25
2013-7-25,78,70,47,58,51,46,97,55,42,29.99,29.93,11,4,11,0.00
2013-7-26,68,65,62,66,63,60,97,93,89,29.95,29.79,12,4,12,0.28
2013-7-27,98,75,61,69,63,59,98,70,34,29.91,29.77,16,4,16,0.00
2013-7-28,102,73,58,69,63,57,98,75,34,29.95,29.88,11,2,13,0.01
2013-7-29,91,70,64,68,65,63,98,86,44,29.92,29.88,8,1,8,0.04
2013-7-30,94,77,58,73,62,55,99,66,33,29.94,29.87,15,4,15,0.39
2013-7-31,98,76,52,65,58,51,98,61,26,29.98,29.89,14,3,14,0.39
2013-8-1,99,80,52,66,61,52,98,57,32,29.91,29.77,12,3,12,0.39
2013-8-2,95,66,56,80,63,55,99,92,41,29.77,29.64,9,2,9,0.67
2013-8-3,95,66,53,74,60,52,99,83,34,29.71,29.58,12,2,12,0.04
2013-8-4,93,68,53,70,57,53,99,75,33,29.66,29.07,16,3,16,0.04
2013-8-5,92,66,50,64,52,47,99,64,35,29.73,27.13,23,6,23,0.00
2013-8-6,95,73,43,61,55,43,99,61,28,29.65,29.31,11,2,11,0.04
2013-8-7,86,68,46,61,55,46,99,68,39,29.72,29.65,4,1,4,0.00
2013-8-8,95,66,53,81,62,52,99,90,41,29.76,29.69,8,1,8,0.24
2013-8-9,94,68,53,74,60,53,99,80,34,29.72,29.63,13,2,17,0.04
2013-8-10,93,66,50,72,56,50,99,75,33,29.74,29.64,15,3,15,0.00
2013-8-11,92,72,50,62,54,49,99,57,25,29.95,29.72,17,5,17,0.00
2013-8-12,98,72,52,63,57,51,99,68,24,29.91,29.80,14,2,14,0.00
2013-8-13,97,68,51,70,61,51,99,83,37,29.91,29.63,15,1,15,0.25
2013-8-14,64,63,62,63,62,62,98,97,97,29.24,29.19,4,0,4,0.01
2013-8-15,91,68,48,58,52,47,99,63,25,29.99,29.81,15,4,15,0.00
2013-8-16,97,68,46,61,54,45,99,68,26,30.12,26.91,14,2,14,0.05
2013-8-17,98,73,49,66,56,49,99,62,24,30.18,27.37,13,2,13,0.01
2013-8-18,88,54,44,62,50,44,99,88,32,30.18,30.16,11,0,12,0.01
2013-8-19,97,79,50,65,61,50,99,59,34,30.17,29.77,22,4,22,0.00
2013-8-20,64,59,57,61,58,57,99,97,90,29.92,29.84,2,0,2,0.00
2013-8-21,104,79,58,71,64,57,98,66,32,30.04,29.85,12,2,12,0.00
2013-8-22,104,82,60,71,65,58,96,62,33,29.85,29.67,17,4,17,0.01
2013-8-23,89,68,44,58,52,44,98,63,27,30.09,29.75,14,5,14,0.00
2013-8-24,92,68,42,60,48,42,99,59,21,30.22,30.09,12,2,12,0.00
2013-8-25,97,73,42,62,52,41,99,57,22,30.26,30.06,10,1,10,0.00
2013-8-26,93,63,55,64,57,51,96,83,24,30.15,29.82,8,1,9,0.02
2013-8-27,106,83,55,70,65,54,99,60,28,29.82,29.39,8,2,8,0.00
2013-9-3,89,60,42,57,49,42,99,74,27,30.27,29.97,12,2,12,0.00
2013-9-4,92,71,42,60,48,42,99,55,21,30.31,30.24,12,2,12,0.00
2013-9-5,91,69,42,62,48,33,99,53,22,30.35,29.92,21,4,21,7.25
2013-9-6,84,64,34,54,42,34,99,56,21,30.19,29.97,15,4,15,7.25
2013-9-7,82,56,49,56,52,47,99,88,29,30.05,29.95,4,1,8,0.00
2013-9-8,74,63,55,66,53,39,99,76,32,29.99,29.33,30,7,30,0.28
2013-9-9,79,50,36,53,46,35,99,90,26,30.15,29.35,11,1,21,0.28
2013-9-10,84,65,43,61,56,42,99,74,45,30.09,27.30,8,1,8,0.28
2013-9-11,106,75,60,74,65,57,98,76,35,30.01,29.34,14,2,14,0.00
2013-9-12,86,68,67,74,67,48,98,97,66,29.90,27.05,12,2,12,0.17
2013-9-13,66,66,66,66,66,66,99,99,98,29.67,29.67,2,1,2,0.00
2013-9-17,73,55,33,43,38,32,99,58,31,30.37,27.62,17,5,17,0.00
2013-9-18,60,56,36,59,55,35,99,97,95,30.26,29.69,4,1,4,0.06
2013-9-20,45,41,37,44,40,37,99,99,97,30.07,30.01,2,0,2,2.50
2013-9-21,90,72,37,59,55,36,99,61,32,30.03,29.76,13,5,13,0.00
2013-9-22,86,65,62,67,62,57,98,90,54,29.77,29.52,15,5,15,0.76
2013-9-23,65,54,38,63,41,37,99,63,43,29.80,29.57,27,10,27,0.76
2013-9-24,60,51,47,44,42,40,81,69,55,29.80,29.74,19,7,19,0.83
2013-9-25,75,59,47,48,45,43,89,62,38,29.85,27.13,17,6,17,0.83
2013-9-26,74,56,43,56,47,42,99,74,43,29.98,27.10,14,2,14,0.83
2013-9-28,94,62,40,59,48,40,99,70,23,30.28,30.20,9,1,9,0.00
2013-9-29,94,62,38,56,46,37,99,65,22,30.17,30.06,8,2,8,0.00
2013-9-30,89,55,36,56,46,34,99,79,27,30.07,29.93,7,1,7,0.00
2013-10-1,92,62,36,59,47,35,99,68,23,29.93,29.77,14,2,14,0.00
2013-10-2,92,64,42,61,50,42,99,68,30,29.81,29.67,20,4,20,0.00
2013-10-3,85,60,42,52,44,34,99,64,18,29.99,29.81,21,5,21,0.00
2013-10-4,87,57,40,52,44,33,99,70,22,30.03,29.95,13,2,13,0.00
2013-10-5,72,56,43,46,43,40,97,67,33,30.10,30.07,5,1,5,0.00
2013-10-6,71,46,36,52,40,35,99,81,34,30.24,30.07,7,1,7,0.00
2013-10-7,68,59,47,67,59,39,99,98,54,30.24,29.70,19,5,19,0.78
2013-10-8,73,59,46,62,47,35,99,71,29,30.25,29.72,26,8,26,0.02
2013-10-9,80,51,30,51,39,30,99,72,23,30.49,30.23,12,1,14,0.02
2013-10-10,86,57,32,53,45,31,99,71,27,30.49,30.18,11,1,11,0.02
2013-10-11,90,52,33,55,42,33,99,77,29,30.32,30.16,14,1,14,0.00
2013-10-12,85,53,51,54,50,49,99,93,35,30.40,27.61,12,5,17,0.00
2013-10-13,81,52,48,53,48,31,98,90,47,30.47,30.15,7,1,8,0.00
2013-10-14,72,54,51,49,47,47,87,81,44,30.46,30.34,4,2,4,0.00
2013-10-16,58,53,51,54,52,51,99,97,80,29.89,29.83,5,1,5,0.80
2013-10-19,78,59,45,51,44,40,99,61,28,29.93,27.16,13,3,13,0.00
2013-10-20,73,52,39,56,43,22,99,80,17,30.10,29.68,24,3,24,0.02
2013-10-21,75,53,29,49,36,28,99,61,22,30.11,27.24,14,3,17,0.99
2013-10-22,62,48,38,53,44,37,99,88,64,29.95,29.78,17,3,17,0.99
2013-10-23,69,47,28,54,38,27,99,75,36,29.77,29.54,12,1,12,1.12
2013-10-24,58,41,26,42,28,19,97,65,27,29.71,29.55,24,5,24,0.01
2013-10-25,65,41,24,38,28,21,98,64,26,30.00,29.55,24,5,24,0.00
2013-10-26,60,38,25,39,31,21,98,78,40,30.02,26.89,13,2,13,0.01
2013-10-27,69,46,30,45,34,26,91,66,36,27.23,27.03,16,4,16,0.00
2013-10-28,61,38,25,46,28,19,98,73,37,30.27,27.22,30,4,30,0.01
2013-10-29,60,28,18,34,21,13,88,77,26,30.38,30.27,8,2,8,0.00
2013-11-2,39,38,38,39,38,38,99,99,99,26.91,26.91,1,0,1,0.00
2013-11-3,80,50,34,56,40,23,99,72,33,29.26,28.81,16,4,16,0.02
2013-11-4,53,41,26,23,16,10,69,38,22,29.54,29.26,27,7,27,0.00
2013-11-5,63,36,17,34,24,13,92,68,28,29.94,29.28,14,2,14,0.00
2013-11-6,72,43,25,46,36,22,97,79,34,29.71,29.17,17,3,17,0.00
2013-11-7,55,48,32,54,45,29,99,91,69,29.18,28.86,24,5,24,0.25
2013-11-8,52,37,24,35,25,20,94,63,37,29.15,28.98,23,7,23,0.00
2013-11-9,53,36,23,23,20,13,87,55,24,29.33,29.15,24,6,24,0.00
2013-11-10,40,32,24,38,30,20,98,93,84,29.30,28.93,5,1,5,0.15
2013-11-11,54,38,28,44,30,24,99,76,45,29.20,28.94,22,3,22,0.00
2013-11-12,41,31,25,30,16,8,83,53,33,29.28,29.02,29,8,29,0.00
2013-11-13,45,28,16,13,9,3,68,47,24,29.40,29.26,21,7,21,0.00
2013-11-14,60,34,24,29,20,10,90,59,24,29.28,29.17,14,3,14,0.00
2013-11-15,65,36,23,39,26,20,97,73,25,29.42,29.28,8,1,8,0.00
2013-11-16,71,35,23,38,26,20,99,77,20,29.85,27.58,4,0,4,0.00
2013-11-17,51,37,20,44,34,17,99,88,45,30.20,29.56,8,1,8,0.05
2013-11-18,77,53,42,61,46,30,99,79,38,29.55,28.98,16,5,16,0.47
2013-11-19,49,37,31,34,20,12,78,49,26,29.74,29.14,32,12,32,0.00
2013-11-20,50,31,20,14,9,2,68,40,21,30.19,29.74,33,8,33,0.00
2013-11-21,65,32,16,31,17,9,88,60,17,30.20,29.91,8,1,8,0.00
2013-11-22,46,30,19,36,24,15,95,78,43,29.91,29.35,6,0,6,0.00
2013-11-23,43,36,32,33,28,17,97,77,39,29.35,29.26,40,9,40,0.02
2013-11-24,26,20,17,3,-2,-6,48,38,25,29.51,29.13,45,20,45,0.00
2013-11-25,34,20,12,2,-4,-12,50,34,21,29.85,29.51,35,9,35,0.00
2013-11-26,37,29,23,27,19,0,92,69,34,29.87,29.77,9,1,11,0.00
2013-11-27,57,44,29,56,43,27,99,97,92,29.78,28.76,17,4,24,2.30
2013-11-28,38,27,13,35,12,-5,98,55,24,29.92,28.86,17,2,20,0.41
2013-11-29,32,19,8,6,0,-6,76,47,22,30.30,29.92,14,1,14,0.00
2013-11-30,42,19,3,19,3,-6,72,54,21,30.38,29.99,10,2,10,0.00
2013-12-1,35,29,22,28,24,13,92,81,68,29.99,29.72,4,0,4,0.00
2013-12-2,34,32,29,32,30,27,95,92,87,29.71,29.53,9,1,9,0.09
2013-12-3,45,35,30,40,33,26,98,91,80,30.27,29.51,15,3,15,0.40
2013-12-4,46,29,0,28,22,11,93,68,26,30.19,27.13,57,4,57,0.01
2013-12-5,34,27,15,32,24,9,93,86,76,30.26,29.89,4,1,4,0.02
2013-12-6,43,35,32,41,33,24,98,90,70,30.08,29.84,8,1,8,0.19
2013-12-7,40,30,19,25,9,1,71,42,25,30.36,30.04,24,9,24,0.00
2013-12-8,30,16,8,7,1,-36,77,54,10,30.57,30.35,21,4,21,0.00
2013-12-9,24,18,11,15,9,1,81,67,44,30.54,29.84,11,4,11,0.00
2013-12-10,38,22,10,27,11,0,84,64,44,29.86,29.71,20,4,20,0.00
2013-12-11,38,17,-2,12,2,-11,71,53,24,30.08,29.86,21,4,21,0.00
2013-12-12,22,8,-3,0,-12,-21,70,41,21,30.23,29.96,34,6,34,0.00
2013-12-13,33,6,-8,7,-13,-22,61,44,21,30.37,29.84,33,6,33,0.00
2013-12-14,28,4,-14,-7,-17,-27,58,39,21,30.60,30.37,15,2,15,0.00
2013-12-15,15,10,4,6,0,-11,72,64,43,30.44,29.49,26,8,26,0.00
2013-12-16,31,7,-8,12,-11,-22,67,45,24,30.19,29.64,29,6,29,0.00
2013-12-17,29,2,-21,-1,-16,-35,64,43,21,30.30,30.09,8,2,8,0.00
2013-12-18,40,14,-3,19,3,-13,70,62,34,30.09,29.84,14,3,14,0.00
2013-12-19,35,19,3,20,10,-6,83,68,53,30.06,29.90,5,1,5,0.00
2013-12-20,31,26,21,26,20,16,86,80,72,30.13,29.94,9,2,9,0.00
2013-12-21,28,24,19,24,18,12,83,78,69,30.01,29.85,10,2,10,0.00
2013-12-22,29,24,23,25,20,18,86,83,80,30.11,29.89,0,0,0,0.00
2013-12-23,30,26,23,27,23,19,90,86,82,30.14,30.00,0,0,0,0.00
2013-12-24,32,19,2,24,12,-6,86,76,62,30.16,30.05,0,0,0,0.00
2013-12-25,27,8,-5,12,-3,-15,69,60,45,30.53,30.15,0,0,0,0.00
2013-12-26,18,10,-2,11,2,-12,76,68,61,30.51,30.08,0,0,0,0.00
2013-12-27,45,15,-4,28,6,-13,83,67,46,30.17,30.09,0,0,0,0.11
2013-12-28,36,20,9,28,13,1,88,76,62,30.15,29.91,0,0,0,0.01
2013-12-29,32,24,0,29,20,9,89,80,68,30.05,29.62,0,0,0,0.00
2013-12-30,40,15,-4,24,4,-16,80,64,42,30.17,29.57,0,0,0,0.00
2013-12-31,27,-3,-16,-3,-17,-28,60,49,24,30.17,30.03,0,0,0,0.00
2014-1-1,27,-3,-26,1,-20,-42,61,45,26,30.42,30.08,0,0,0,0.00
2014-1-2,3,-8,-12,-19,-26,-30,57,40,24,30.49,30.08,0,0,0,0.00